Time;durP1;ratioP1;P1;durP2;ratioP2;P2;SDS_P1;SDS_P2;PMS_P1;PMS_P2;Temp;Humidity;BMP_temperature;BMP_pressure;BME280_temperature;BME280_humidity;BME280_pressure;Samples;Min_cycle;Max_cycle;Signal;HPM_P1;HPM_P2
2021/07/24 00:00:46;;;;;;;11.77;5.57;;;;;;;;;;4971699;28;20031;-85
2021/07/24 00:03:12;;;;;;;11.10;5.25;;;;;;;;;;5072583;28;20030;-82
2021/07/24 00:05:39;;;;;;;9.93;5.10;;;;;;;;;;5073025;28;20171;-80
2021/07/24 00:08:05;;;;;;;9.50;5.10;;;;;;;;;;4972168;28;20034;-80
2021/07/24 00:10:31;;;;;;;9.75;5.05;;;;;;;;;;4972560;28;20049;-81
2021/07/24 00:12:58;;;;;;;9.10;4.97;;;;;;;;;;5072415;28;20038;-81
2021/07/24 00:15:24;;;;;;;8.15;4.50;;;;;;;;;;5072816;28;20030;-80
2021/07/24 00:17:50;;;;;;;10.23;5.45;;;;;;;;;;4973588;28;20049;-79
2021/07/24 00:20:17;;;;;;;8.60;4.95;;;;;;;;;;5072297;28;20027;-81
2021/07/24 00:22:43;;;;;;;10.15;5.28;;;;;;;;;;4972047;28;20084;-79
2021/07/24 00:25:10;;;;;;;10.95;4.97;;;;;;;;;;5072602;28;20030;-80
2021/07/24 00:27:36;;;;;;;9.63;5.22;;;;;;;;;;4971543;28;20111;-80
2021/07/24 00:30:03;;;;;;;9.88;5.07;;;;;;;;;;4972438;28;20081;-81
2021/07/24 00:32:29;;;;;;;9.73;5.90;;;;;;;;;;4971795;28;20494;-79
2021/07/24 00:34:56;;;;;;;8.93;5.20;;;;;;;;;;5071621;28;20031;-79
2021/07/24 00:37:22;;;;;;;10.15;5.03;;;;;;;;;;5071780;28;20504;-80
2021/07/24 00:39:48;;;;;;;11.65;5.47;;;;;;;;;;4971903;28;20035;-79
2021/07/24 00:42:16;;;;;;;10.00;5.32;;;;;;;;;;5071880;28;20031;-78
2021/07/24 00:44:45;;;;;;;9.98;5.18;;;;;;;;;;5071802;28;20023;-79
2021/07/24 00:47:16;;;;;;;8.77;4.72;;;;;;;;;;5071647;28;20080;-79
2021/07/24 00:49:44;;;;;;;12.85;5.47;;;;;;;;;;4971398;28;20206;-79
2021/07/24 00:52:10;;;;;;;10.27;5.07;;;;;;;;;;5071826;28;20076;-79
2021/07/24 00:54:39;;;;;;;13.70;4.93;;;;;;;;;;5071937;28;20027;-79
2021/07/24 00:57:05;;;;;;;10.65;5.07;;;;;;;;;;5071584;28;20122;-79
2021/07/24 00:59:32;;;;;;;7.53;4.63;;;;;;;;;;5069908;28;20038;-80
2021/07/24 01:01:58;;;;;;;13.77;5.78;;;;;;;;;;4971963;28;20475;-80
2021/07/24 01:04:25;;;;;;;9.20;4.88;;;;;;;;;;4971392;28;20514;-79
2021/07/24 01:06:51;;;;;;;10.70;5.20;;;;;;;;;;5071715;28;20038;-80
2021/07/24 01:09:17;;;;;;;9.43;4.97;;;;;;;;;;5071270;28;20414;-80
2021/07/24 01:11:44;;;;;;;9.30;5.18;;;;;;;;;;5071584;28;20026;-79
2021/07/24 01:14:11;;;;;;;8.77;5.10;;;;;;;;;;4973842;28;20034;-80
2021/07/24 01:16:38;;;;;;;8.77;5.22;;;;;;;;;;5075400;28;20035;-80
2021/07/24 01:19:05;;;;;;;9.75;5.43;;;;;;;;;;5075219;28;20038;-79
2021/07/24 01:21:31;;;;;;;10.45;5.18;;;;;;;;;;5074806;28;20049;-80
2021/07/24 01:23:57;;;;;;;12.07;5.93;;;;;;;;;;5075126;28;20076;-80
2021/07/24 01:26:25;;;;;;;9.68;5.25;;;;;;;;;;4974967;28;20026;-80
2021/07/24 01:28:52;;;;;;;9.70;5.28;;;;;;;;;;5074827;28;20406;-81
2021/07/24 01:31:18;;;;;;;10.25;5.45;;;;;;;;;;4974264;28;20033;-80
2021/07/24 01:33:44;;;;;;;9.65;5.18;;;;;;;;;;4973937;28;20030;-80
2021/07/24 01:36:11;;;;;;;10.05;5.22;;;;;;;;;;5074844;28;20487;-79
2021/07/24 01:38:38;;;;;;;8.88;5.38;;;;;;;;;;5074530;28;20506;-80
2021/07/24 01:41:11;;;;;;;9.35;5.20;;;;;;;;;;5075095;28;20050;-80
2021/07/24 01:43:38;;;;;;;9.80;5.68;;;;;;;;;;5074371;28;20027;-79
2021/07/24 01:46:05;;;;;;;9.20;5.20;;;;;;;;;;5076106;28;20376;-79
2021/07/24 01:48:36;;;;;;;9.20;5.53;;;;;;;;;;4973952;28;20084;-79
2021/07/24 01:53:48;;;;;;;12.63;5.35;;;;;;;;;;4974258;28;20057;-80
2021/07/24 01:56:16;;;;;;;9.65;5.20;;;;;;;;;;4973833;28;20023;-81
2021/07/24 01:58:43;;;;;;;9.07;5.63;;;;;;;;;;5074639;28;20130;-79
2021/07/24 02:01:11;;;;;;;8.02;5.28;;;;;;;;;;4973991;28;20034;-79
2021/07/24 02:03:44;;;;;;;12.63;6.15;;;;;;;;;;5074318;28;20035;-80
2021/07/24 02:06:12;;;;;;;10.20;6.07;;;;;;;;;;5074133;28;20114;-79
2021/07/24 02:08:42;;;;;;;10.50;6.18;;;;;;;;;;5073788;28;20041;-80
2021/07/24 02:11:08;;;;;;;11.18;5.65;;;;;;;;;;5074764;28;20054;-79
2021/07/24 02:13:34;;;;;;;10.90;5.68;;;;;;;;;;5074227;28;20023;-79
2021/07/24 02:16:01;;;;;;;10.30;5.45;;;;;;;;;;4973426;28;20038;-79
2021/07/24 02:18:28;;;;;;;9.70;5.45;;;;;;;;;;5074169;28;20031;-79
2021/07/24 02:20:55;;;;;;;10.93;5.78;;;;;;;;;;4973423;28;20127;-80
2021/07/24 02:23:21;;;;;;;11.52;6.18;;;;;;;;;;4973272;28;20106;-80
2021/07/24 02:25:48;;;;;;;11.95;6.25;;;;;;;;;;4972766;28;20030;-81
2021/07/24 02:28:14;;;;;;;11.32;5.85;;;;;;;;;;5073909;28;20054;-79
2021/07/24 02:30:41;;;;;;;12.40;5.55;;;;;;;;;;4973137;28;20097;-80
2021/07/24 02:33:07;;;;;;;11.68;5.53;;;;;;;;;;5073424;28;20023;-79
2021/07/24 02:35:33;;;;;;;16.75;6.60;;;;;;;;;;4975620;28;20057;-80
2021/07/24 02:38:00;;;;;;;9.65;5.72;;;;;;;;;;4992334;28;20076;-81
2021/07/24 02:40:26;;;;;;;11.35;6.07;;;;;;;;;;4992908;28;20079;-80
2021/07/24 02:42:54;;;;;;;10.13;5.95;;;;;;;;;;4992400;28;20525;-80
2021/07/24 02:45:21;;;;;;;11.70;5.78;;;;;;;;;;5076872;28;20027;-79
2021/07/24 02:47:47;;;;;;;10.07;5.75;;;;;;;;;;4992286;28;20042;-79
2021/07/24 02:50:14;;;;;;;13.40;6.30;;;;;;;;;;4992878;28;20087;-79
2021/07/24 02:52:40;;;;;;;13.23;7.22;;;;;;;;;;5076313;28;20075;-79
2021/07/24 02:55:07;;;;;;;11.70;6.60;;;;;;;;;;4992340;28;20022;-80
2021/07/24 02:57:34;;;;;;;11.50;6.47;;;;;;;;;;4992121;28;20052;-81
2021/07/24 03:00:00;;;;;;;12.45;6.57;;;;;;;;;;4992115;28;20105;-80
2021/07/24 03:02:27;;;;;;;13.10;6.22;;;;;;;;;;5076263;28;20035;-79
2021/07/24 03:04:53;;;;;;;11.65;6.25;;;;;;;;;;5076309;28;20030;-79
2021/07/24 03:07:19;;;;;;;9.57;5.65;;;;;;;;;;5076379;28;20058;-80
2021/07/24 03:09:46;;;;;;;9.77;6.22;;;;;;;;;;4992129;28;20138;-79
2021/07/24 03:12:13;;;;;;;11.80;6.07;;;;;;;;;;5077209;28;20070;-81
2021/07/24 03:14:39;;;;;;;12.05;6.38;;;;;;;;;;5076035;28;20117;-80
2021/07/24 03:17:05;;;;;;;11.50;6.32;;;;;;;;;;4991955;28;20031;-80
2021/07/24 03:19:32;;;;;;;11.95;6.28;;;;;;;;;;5075780;28;20038;-80
2021/07/24 03:21:58;;;;;;;10.05;6.03;;;;;;;;;;5076189;28;20053;-80
2021/07/24 03:24:24;;;;;;;12.57;6.38;;;;;;;;;;4992377;28;20030;-79
2021/07/24 03:26:51;;;;;;;11.13;6.35;;;;;;;;;;4991900;28;20022;-79
2021/07/24 03:29:17;;;;;;;16.25;6.72;;;;;;;;;;4991858;28;20030;-79
2021/07/24 03:31:43;;;;;;;10.57;6.40;;;;;;;;;;4991738;28;20356;-80
2021/07/24 03:34:10;;;;;;;13.00;7.10;;;;;;;;;;5076159;28;20129;-80
2021/07/24 03:36:36;;;;;;;10.73;6.47;;;;;;;;;;4990507;28;20491;-80
2021/07/24 03:39:03;;;;;;;13.23;6.43;;;;;;;;;;5075712;28;20132;-80
2021/07/24 03:41:29;;;;;;;11.48;6.93;;;;;;;;;;5075922;28;20026;-80
2021/07/24 03:43:56;;;;;;;11.25;6.35;;;;;;;;;;4991650;28;20025;-80
2021/07/24 03:46:24;;;;;;;13.98;6.80;;;;;;;;;;5076949;28;20022;-80
2021/07/24 03:48:52;;;;;;;10.00;5.88;;;;;;;;;;5075657;28;20027;-79
2021/07/24 03:51:18;;;;;;;9.23;5.47;;;;;;;;;;4992351;28;20030;-79
2021/07/24 03:53:45;;;;;;;11.18;6.32;;;;;;;;;;5075742;28;20026;-80
2021/07/24 03:56:21;;;;;;;10.98;5.40;;;;;;;;;;5076024;28;20400;-79
2021/07/24 03:58:49;;;;;;;10.52;6.18;;;;;;;;;;5075546;28;20038;-80
2021/07/24 04:01:15;;;;;;;10.30;5.90;;;;;;;;;;4991482;28;20379;-80
2021/07/24 04:03:42;;;;;;;11.23;5.70;;;;;;;;;;4992020;28;20133;-80
2021/07/24 04:06:09;;;;;;;9.95;5.57;;;;;;;;;;5075899;28;20030;-79
2021/07/24 04:08:36;;;;;;;13.85;5.50;;;;;;;;;;4991143;28;20113;-80
2021/07/24 04:11:05;;;;;;;9.90;6.18;;;;;;;;;;4991914;28;20030;-79
2021/07/24 04:13:32;;;;;;;9.02;5.75;;;;;;;;;;5075296;28;20033;-80
2021/07/24 04:15:59;;;;;;;12.10;6.55;;;;;;;;;;4991620;28;20038;-82
2021/07/24 04:18:29;;;;;;;10.82;5.78;;;;;;;;;;4990961;28;20035;-80
2021/07/24 04:20:56;;;;;;;10.02;5.50;;;;;;;;;;5075248;28;20113;-80
2021/07/24 04:23:22;;;;;;;9.70;5.88;;;;;;;;;;5075230;28;20030;-80
2021/07/24 04:25:48;;;;;;;10.20;5.90;;;;;;;;;;4990935;28;20087;-80
2021/07/24 04:28:15;;;;;;;10.10;6.07;;;;;;;;;;4990927;28;20046;-80
2021/07/24 04:30:41;;;;;;;10.25;5.57;;;;;;;;;;5076376;28;20026;-80
2021/07/24 04:33:07;;;;;;;8.45;5.05;;;;;;;;;;4991443;28;20040;-78
2021/07/24 04:35:34;;;;;;;11.70;3.88;;;;;;;;;;5074679;28;20046;-80
2021/07/24 04:38:00;;;;;;;7.00;3.65;;;;;;;;;;4991347;28;20042;-80
2021/07/24 04:40:26;;;;;;;9.18;3.28;;;;;;;;;;4991379;28;20090;-80
2021/07/24 04:42:53;;;;;;;7.53;3.95;;;;;;;;;;5075008;28;20034;-78
2021/07/24 04:45:19;;;;;;;7.50;3.78;;;;;;;;;;4990861;28;20075;-80
2021/07/24 04:47:46;;;;;;;9.38;4.22;;;;;;;;;;4992509;28;20079;-80
2021/07/24 04:50:12;;;;;;;7.63;3.83;;;;;;;;;;4994145;28;20058;-79
2021/07/24 04:52:39;;;;;;;8.50;3.90;;;;;;;;;;5078966;28;20558;-78
2021/07/24 04:55:05;;;;;;;7.00;3.63;;;;;;;;;;5079200;28;20113;-79
2021/07/24 04:57:34;;;;;;;8.02;4.30;;;;;;;;;;5078417;28;20026;-79
2021/07/24 05:00:00;;;;;;;7.93;3.75;;;;;;;;;;5078666;28;20043;-80
2021/07/24 05:02:27;;;;;;;9.85;4.40;;;;;;;;;;5078525;28;20038;-81
2021/07/24 05:04:54;;;;;;;6.28;3.53;;;;;;;;;;4994278;28;20027;-80
2021/07/24 05:07:22;;;;;;;6.07;3.63;;;;;;;;;;4993813;28;20034;-81
2021/07/24 05:09:48;;;;;;;8.30;4.03;;;;;;;;;;5078397;28;20111;-80
2021/07/24 05:12:14;;;;;;;7.13;3.80;;;;;;;;;;5078380;28;20122;-82
2021/07/24 05:14:41;;;;;;;9.77;4.40;;;;;;;;;;5078742;28;20026;-80
2021/07/24 05:17:08;;;;;;;8.90;4.25;;;;;;;;;;4994382;28;20547;-79
2021/07/24 05:19:44;;;;;;;10.18;4.70;;;;;;;;;;4993694;28;20085;-80
2021/07/24 05:22:11;;;;;;;8.00;4.43;;;;;;;;;;5077970;28;20026;-79
2021/07/24 05:24:38;;;;;;;7.28;4.22;;;;;;;;;;4993825;28;20026;-80
2021/07/24 05:27:05;;;;;;;7.38;4.60;;;;;;;;;;4993681;28;20396;-80
2021/07/24 05:29:31;;;;;;;7.20;4.25;;;;;;;;;;4994132;28;20022;-80
2021/07/24 05:31:58;;;;;;;7.25;4.75;;;;;;;;;;4993644;28;20109;-80
2021/07/24 05:34:24;;;;;;;6.45;4.40;;;;;;;;;;4993602;28;20474;-81
2021/07/24 05:36:52;;;;;;;12.23;4.60;;;;;;;;;;5074689;28;20047;-80
2021/07/24 05:39:18;;;;;;;8.45;4.53;;;;;;;;;;5075182;28;20046;-80
2021/07/24 05:41:45;;;;;;;7.60;4.68;;;;;;;;;;5074749;28;20027;-81
2021/07/24 05:44:13;;;;;;;7.18;4.28;;;;;;;;;;5074777;28;20038;-80
2021/07/24 05:46:39;;;;;;;6.35;4.30;;;;;;;;;;5074408;28;20030;-80
2021/07/24 05:49:06;;;;;;;9.15;4.90;;;;;;;;;;4974010;28;20073;-80
2021/07/24 05:51:32;;;;;;;7.70;4.53;;;;;;;;;;5075712;28;20030;-80
2021/07/24 05:53:59;;;;;;;8.70;4.80;;;;;;;;;;4973774;28;20414;-81
2021/07/24 05:56:25;;;;;;;7.32;4.22;;;;;;;;;;4974214;28;20077;-80
2021/07/24 05:58:51;;;;;;;8.05;4.53;;;;;;;;;;5073573;28;20045;-81
2021/07/24 06:01:18;;;;;;;8.20;4.85;;;;;;;;;;4973553;28;20035;-80
2021/07/24 06:03:44;;;;;;;6.93;4.32;;;;;;;;;;4973559;28;20035;-81
2021/07/24 06:06:11;;;;;;;7.55;4.72;;;;;;;;;;4974033;28;20054;-81
2021/07/24 06:08:37;;;;;;;8.05;4.18;;;;;;;;;;4973445;28;20430;-82
2021/07/24 06:11:05;;;;;;;7.85;5.22;;;;;;;;;;4973917;28;20051;-82
2021/07/24 06:13:32;;;;;;;11.77;5.32;;;;;;;;;;5073955;28;20038;-81
2021/07/24 06:15:58;;;;;;;12.32;5.13;;;;;;;;;;5074046;28;20168;-81
2021/07/24 06:18:25;;;;;;;7.00;4.25;;;;;;;;;;4973288;28;20095;-81
2021/07/24 06:20:51;;;;;;;11.93;4.63;;;;;;;;;;5074065;28;20027;-80
2021/07/24 06:23:18;;;;;;;11.88;4.97;;;;;;;;;;4973395;28;20116;-82
2021/07/24 06:25:48;;;;;;;7.15;4.38;;;;;;;;;;4973213;28;20035;-81
2021/07/24 06:28:14;;;;;;;6.65;4.63;;;;;;;;;;5073782;28;20027;-81
2021/07/24 06:30:41;;;;;;;7.65;4.40;;;;;;;;;;5073534;28;20042;-81
2021/07/24 06:33:08;;;;;;;7.70;4.45;;;;;;;;;;5073453;28;20386;-81
2021/07/24 06:35:34;;;;;;;9.52;4.97;;;;;;;;;;5075750;28;20046;-80
2021/07/24 06:38:01;;;;;;;7.22;4.45;;;;;;;;;;4992391;28;20487;-80
2021/07/24 06:40:28;;;;;;;13.50;4.72;;;;;;;;;;4992950;28;20035;-81
2021/07/24 06:42:55;;;;;;;9.68;4.85;;;;;;;;;;4992907;28;20093;-81
2021/07/24 06:45:22;;;;;;;9.50;5.13;;;;;;;;;;4992358;28;20027;-80
2021/07/24 06:47:48;;;;;;;11.00;4.68;;;;;;;;;;5076699;28;20095;-80
2021/07/24 06:50:15;;;;;;;8.05;4.82;;;;;;;;;;4992258;28;20053;-80
2021/07/24 06:52:43;;;;;;;8.70;4.45;;;;;;;;;;4992313;28;20026;-81
2021/07/24 06:55:09;;;;;;;9.35;4.95;;;;;;;;;;5076853;28;20030;-80
2021/07/24 06:57:36;;;;;;;6.93;4.28;;;;;;;;;;4992315;28;20031;-81
2021/07/24 07:00:02;;;;;;;6.72;3.92;;;;;;;;;;5076486;28;20042;-82
2021/07/24 07:02:28;;;;;;;8.02;4.70;;;;;;;;;;4992648;28;20100;-81
2021/07/24 07:04:55;;;;;;;10.13;4.78;;;;;;;;;;5076543;28;20125;-80
2021/07/24 07:07:21;;;;;;;10.85;4.95;;;;;;;;;;5076413;28;20084;-81
2021/07/24 07:09:48;;;;;;;7.03;4.90;;;;;;;;;;4992084;28;20019;-81
2021/07/24 07:12:14;;;;;;;14.52;4.97;;;;;;;;;;4993002;28;20066;-81
2021/07/24 07:14:40;;;;;;;8.30;4.65;;;;;;;;;;5076311;28;20035;-80
2021/07/24 07:17:07;;;;;;;17.83;5.57;;;;;;;;;;5076212;28;20084;-81
2021/07/24 07:19:35;;;;;;;17.52;5.70;;;;;;;;;;5076059;28;20129;-80
2021/07/24 07:22:02;;;;;;;9.88;5.95;;;;;;;;;;5076173;28;20470;-82
2021/07/24 07:24:29;;;;;;;7.80;5.38;;;;;;;;;;5075813;28;20038;-81
2021/07/24 07:26:55;;;;;;;9.55;5.60;;;;;;;;;;4991881;28;20072;-82
2021/07/24 07:29:23;;;;;;;8.95;5.18;;;;;;;;;;4991875;28;20027;-81
2021/07/24 07:31:49;;;;;;;8.98;4.97;;;;;;;;;;5076838;28;20063;-81
2021/07/24 07:34:15;;;;;;;8.63;5.50;;;;;;;;;;5076001;28;20454;-81
2021/07/24 07:36:42;;;;;;;14.48;5.40;;;;;;;;;;4991515;28;20494;-81
2021/07/24 07:39:10;;;;;;;8.45;5.32;;;;;;;;;;5075010;28;20529;-81
2021/07/24 07:41:36;;;;;;;9.52;4.95;;;;;;;;;;4992054;28;20053;-81
2021/07/24 07:44:03;;;;;;;11.93;5.85;;;;;;;;;;4991807;28;20026;-81
2021/07/24 07:46:29;;;;;;;10.35;4.95;;;;;;;;;;4992073;28;20027;-81
2021/07/24 07:48:57;;;;;;;10.27;5.32;;;;;;;;;;5075657;28;20034;-81
2021/07/24 07:51:23;;;;;;;11.65;5.35;;;;;;;;;;5075700;28;20044;-82
2021/07/24 07:53:50;;;;;;;11.52;5.40;;;;;;;;;;4991411;28;20098;-81
2021/07/24 07:56:16;;;;;;;9.15;4.93;;;;;;;;;;4991808;28;20037;-81
2021/07/24 07:58:43;;;;;;;8.65;5.00;;;;;;;;;;5075426;28;20415;-81
2021/07/24 08:01:13;;;;;;;23.20;5.60;;;;;;;;;;4991611;28;20034;-83
2021/07/24 08:03:40;;;;;;;9.40;5.47;;;;;;;;;;5075443;28;20033;-82
2021/07/24 08:06:07;;;;;;;9.63;5.32;;;;;;;;;;5075525;28;20049;-82
2021/07/24 08:08:33;;;;;;;17.85;5.43;;;;;;;;;;4991162;28;20022;-80
2021/07/24 08:10:59;;;;;;;9.70;4.95;;;;;;;;;;4991229;28;20031;-81
2021/07/24 08:13:27;;;;;;;10.45;5.97;;;;;;;;;;4991083;28;20034;-81
2021/07/24 08:15:54;;;;;;;9.85;5.40;;;;;;;;;;5075602;28;20471;-81
2021/07/24 08:18:20;;;;;;;21.17;5.53;;;;;;;;;;5075482;28;20375;-81
2021/07/24 08:20:47;;;;;;;10.52;5.18;;;;;;;;;;5075195;28;20482;-81
2021/07/24 08:23:14;;;;;;;8.43;4.63;;;;;;;;;;4993008;28;20386;-82
2021/07/24 08:25:41;;;;;;;9.77;4.70;;;;;;;;;;5079397;28;20079;-81
2021/07/24 08:28:07;;;;;;;7.93;4.60;;;;;;;;;;4994994;28;20030;-81
2021/07/24 08:30:34;;;;;;;9.98;5.00;;;;;;;;;;4994509;28;20041;-81
2021/07/24 08:33:01;;;;;;;8.07;4.95;;;;;;;;;;4994986;28;20030;-81
2021/07/24 08:35:27;;;;;;;8.35;4.78;;;;;;;;;;4994099;28;20097;-81
2021/07/24 08:37:54;;;;;;;6.50;4.80;;;;;;;;;;5080296;28;20093;-82
2021/07/24 08:40:21;;;;;;;9.23;4.57;;;;;;;;;;5080517;28;20034;-81
2021/07/24 08:42:47;;;;;;;9.30;4.85;;;;;;;;;;5079509;28;20027;-82
2021/07/24 08:45:14;;;;;;;13.20;5.55;;;;;;;;;;4994697;28;20041;-81
2021/07/24 08:47:41;;;;;;;8.35;4.57;;;;;;;;;;5079892;28;20474;-81
2021/07/24 08:50:08;;;;;;;9.95;4.35;;;;;;;;;;4994628;28;20079;-81
2021/07/24 08:52:35;;;;;;;12.02;4.63;;;;;;;;;;4994771;28;20079;-81
2021/07/24 08:55:04;;;;;;;6.88;4.47;;;;;;;;;;4994219;28;20033;-81
2021/07/24 08:57:34;;;;;;;5.88;4.18;;;;;;;;;;4994435;28;20037;-81
2021/07/24 09:00:06;;;;;;;9.65;4.30;;;;;;;;;;5078546;28;20034;-81
2021/07/24 09:02:36;;;;;;;12.15;4.88;;;;;;;;;;5078914;28;20028;-81
2021/07/24 09:05:04;;;;;;;7.80;4.97;;;;;;;;;;4994235;28;20026;-81
2021/07/24 09:07:32;;;;;;;8.30;4.70;;;;;;;;;;5078458;28;20023;-80
2021/07/24 09:09:59;;;;;;;7.30;4.65;;;;;;;;;;5078267;28;20386;-81
2021/07/24 09:12:29;;;;;;;7.57;4.40;;;;;;;;;;5078819;28;20034;-81
2021/07/24 09:14:58;;;;;;;10.60;4.50;;;;;;;;;;5078623;28;20030;-81
2021/07/24 09:17:24;;;;;;;6.43;4.53;;;;;;;;;;4994039;28;20026;-80
2021/07/24 09:19:51;;;;;;;8.35;5.03;;;;;;;;;;5079385;28;20170;-81
2021/07/24 09:22:27;;;;;;;6.80;4.93;;;;;;;;;;5078131;28;20027;-81
2021/07/24 09:25:02;;;;;;;10.95;5.05;;;;;;;;;;5078354;28;20129;-82
2021/07/24 09:27:29;;;;;;;8.45;5.35;;;;;;;;;;5077929;28;20454;-81
2021/07/24 09:29:55;;;;;;;8.38;4.78;;;;;;;;;;4994206;28;20459;-81
2021/07/24 09:32:22;;;;;;;9.90;5.10;;;;;;;;;;5078190;28;20023;-81
2021/07/24 09:34:48;;;;;;;9.50;5.75;;;;;;;;;;4992831;28;20030;-81
2021/07/24 09:37:30;;;;;;;7.20;4.72;;;;;;;;;;4993313;28;20384;-81
2021/07/24 09:39:58;;;;;;;11.77;4.97;;;;;;;;;;5077520;28;20041;-81
2021/07/24 09:42:31;;;;;;;8.00;4.30;;;;;;;;;;4993359;28;20030;-81
2021/07/24 09:45:05;;;;;;;8.60;3.85;;;;;;;;;;5077845;28;20479;-82
2021/07/24 09:47:31;;;;;;;7.20;4.03;;;;;;;;;;4993777;28;20019;-81
2021/07/24 09:50:14;;;;;;;5.85;4.22;;;;;;;;;;4993371;28;20029;-82
2021/07/24 09:52:47;;;;;;;7.97;4.20;;;;;;;;;;5077737;28;20030;-81
2021/07/24 09:55:18;;;;;;;6.88;4.53;;;;;;;;;;5077862;28;20113;-81
2021/07/24 09:57:44;;;;;;;9.13;4.35;;;;;;;;;;5077451;28;20031;-81
2021/07/24 10:00:27;;;;;;;8.32;4.22;;;;;;;;;;5077436;28;20034;-80
2021/07/24 10:03:03;;;;;;;6.63;4.28;;;;;;;;;;5077293;28;20037;-81
2021/07/24 10:05:42;;;;;;;8.90;4.50;;;;;;;;;;5077453;28;20023;-81
2021/07/24 10:08:10;;;;;;;9.10;4.15;;;;;;;;;;5078293;28;20092;-80
2021/07/24 10:10:41;;;;;;;7.47;4.28;;;;;;;;;;5077150;28;20022;-82
2021/07/24 10:13:08;;;;;;;7.97;4.33;;;;;;;;;;5077295;28;20467;-80
2021/07/24 10:15:41;;;;;;;6.13;4.13;;;;;;;;;;5077707;28;20050;-79
2021/07/24 10:18:09;;;;;;;7.72;4.32;;;;;;;;;;5077278;28;20379;-80
2021/07/24 10:20:45;;;;;;;6.50;4.30;;;;;;;;;;4992755;28;20483;-80
2021/07/24 10:23:12;;;;;;;8.75;4.57;;;;;;;;;;5077039;28;20033;-81
2021/07/24 10:25:41;;;;;;;9.88;4.78;;;;;;;;;;4992650;28;20034;-79
2021/07/24 10:28:10;;;;;;;9.75;4.47;;;;;;;;;;5076741;28;20034;-80
2021/07/24 10:30:36;;;;;;;12.32;4.05;;;;;;;;;;5076847;28;20018;-80
2021/07/24 10:33:03;;;;;;;15.50;4.38;;;;;;;;;;4992492;28;20095;-79
2021/07/24 10:35:39;;;;;;;8.20;4.10;;;;;;;;;;4992258;28;20428;-81
2021/07/24 10:38:24;;;;;;;8.30;4.13;;;;;;;;;;5077840;28;20026;-80
2021/07/24 10:40:50;;;;;;;9.23;3.92;;;;;;;;;;5077017;28;20125;-80
2021/07/24 10:43:37;;;;;;;7.82;4.03;;;;;;;;;;4992638;28;20088;-79
2021/07/24 10:46:03;;;;;;;9.27;4.30;;;;;;;;;;5052114;28;20538;-80
2021/07/24 10:48:44;;;;;;;6.63;4.20;;;;;;;;;;5077722;28;20484;-80
2021/07/24 10:51:17;;;;;;;9.75;4.15;;;;;;;;;;5076491;28;20030;-79
2021/07/24 10:54:01;;;;;;;9.25;4.28;;;;;;;;;;5076417;28;20053;-79
2021/07/24 10:56:41;;;;;;;11.20;3.88;;;;;;;;;;5077340;28;20030;-79
2021/07/24 10:59:14;;;;;;;8.00;3.70;;;;;;;;;;5076047;28;20042;-79
2021/07/24 11:01:47;;;;;;;6.45;3.95;;;;;;;;;;5076833;28;20348;-79
2021/07/24 11:04:32;;;;;;;5.65;3.85;;;;;;;;;;5076251;28;20025;-79
2021/07/24 11:07:14;;;;;;;6.50;3.83;;;;;;;;;;5077420;28;20124;-81
2021/07/24 11:09:41;;;;;;;6.32;3.60;;;;;;;;;;5076727;28;20501;-79
2021/07/24 11:12:08;;;;;;;6.38;3.63;;;;;;;;;;5076560;28;20463;-80
2021/07/24 11:14:37;;;;;;;7.13;3.67;;;;;;;;;;4992630;28;20054;-79
2021/07/24 11:17:06;;;;;;;7.70;3.92;;;;;;;;;;4992120;28;20411;-82
2021/07/24 11:19:34;;;;;;;7.32;3.78;;;;;;;;;;5077004;28;20398;-81
2021/07/24 11:22:09;;;;;;;9.00;4.20;;;;;;;;;;4992807;28;20026;-80
2021/07/24 11:24:35;;;;;;;9.32;3.67;;;;;;;;;;5075913;28;20498;-81
2021/07/24 11:27:02;;;;;;;7.53;3.60;;;;;;;;;;4991756;28;20041;-79
2021/07/24 11:29:28;;;;;;;8.68;4.00;;;;;;;;;;4991644;28;20156;-78
2021/07/24 11:31:55;;;;;;;6.38;3.50;;;;;;;;;;4992431;28;20159;-80
2021/07/24 11:34:21;;;;;;;6.18;3.75;;;;;;;;;;5075733;28;20049;-79
2021/07/24 11:36:51;;;;;;;8.00;4.10;;;;;;;;;;5072348;28;20055;-80
2021/07/24 11:39:23;;;;;;;8.82;3.53;;;;;;;;;;5072232;28;20446;-80
2021/07/24 11:41:50;;;;;;;8.25;3.85;;;;;;;;;;5072148;28;20045;-79
2021/07/24 11:44:26;;;;;;;7.88;4.00;;;;;;;;;;5072359;28;20030;-78
2021/07/24 11:46:57;;;;;;;6.47;3.70;;;;;;;;;;5072698;28;20376;-79
2021/07/24 11:49:23;;;;;;;7.25;3.72;;;;;;;;;;5072115;28;20026;-79
2021/07/24 11:51:50;;;;;;;9.13;4.28;;;;;;;;;;4971964;28;20088;-79
2021/07/24 11:54:26;;;;;;;6.25;3.60;;;;;;;;;;4971846;28;20031;-79
2021/07/24 11:56:52;;;;;;;5.15;3.17;;;;;;;;;;5071577;28;20031;-79
2021/07/24 11:59:19;;;;;;;11.93;3.25;;;;;;;;;;5072363;28;20129;-79
2021/07/24 12:01:45;;;;;;;5.70;3.50;;;;;;;;;;5072183;28;20390;-79
2021/07/24 12:04:13;;;;;;;5.90;3.60;;;;;;;;;;4971890;28;20468;-79
2021/07/24 12:06:48;;;;;;;8.52;3.75;;;;;;;;;;5072059;28;20027;-79
2021/07/24 12:09:16;;;;;;;8.25;3.60;;;;;;;;;;5072219;28;20031;-79
2021/07/24 12:11:56;;;;;;;5.43;3.22;;;;;;;;;;5072018;28;20092;-79
2021/07/24 12:14:23;;;;;;;7.82;3.83;;;;;;;;;;5071855;28;20059;-81
2021/07/24 12:17:02;;;;;;;5.00;3.10;;;;;;;;;;4972211;28;20042;-81
2021/07/24 12:19:34;;;;;;;7.13;3.20;;;;;;;;;;5072310;28;20215;-80
2021/07/24 12:22:11;;;;;;;7.35;3.65;;;;;;;;;;4971657;28;20030;-80
2021/07/24 12:24:37;;;;;;;9.00;3.38;;;;;;;;;;5071724;28;20126;-80
2021/07/24 12:27:07;;;;;;;10.95;4.13;;;;;;;;;;4971571;28;20477;-79
2021/07/24 12:29:47;;;;;;;5.97;3.47;;;;;;;;;;5072858;28;20408;-80
2021/07/24 12:32:14;;;;;;;6.55;3.60;;;;;;;;;;4971653;28;20034;-80
2021/07/24 12:34:42;;;;;;;5.70;4.15;;;;;;;;;;4971487;28;20022;-79
2021/07/24 12:37:08;;;;;;;7.43;3.75;;;;;;;;;;4986333;28;20491;-80
2021/07/24 12:39:39;;;;;;;9.57;3.60;;;;;;;;;;4990814;28;20039;-80
2021/07/24 12:42:06;;;;;;;6.05;3.55;;;;;;;;;;5075192;28;20038;-79
2021/07/24 12:44:50;;;;;;;8.20;3.63;;;;;;;;;;5075185;28;20027;-79
2021/07/24 12:47:17;;;;;;;8.55;3.72;;;;;;;;;;5075122;28;20487;-83
2021/07/24 12:49:45;;;;;;;10.90;3.90;;;;;;;;;;4990893;28;20026;-79
2021/07/24 12:52:30;;;;;;;10.55;3.90;;;;;;;;;;5075063;28;20121;-80
2021/07/24 12:55:02;;;;;;;10.57;4.18;;;;;;;;;;5074793;28;20030;-79
2021/07/24 12:57:29;;;;;;;6.55;3.55;;;;;;;;;;5075030;28;20045;-79
2021/07/24 12:59:56;;;;;;;9.27;3.58;;;;;;;;;;4990642;28;20091;-80
2021/07/24 13:02:23;;;;;;;6.32;3.80;;;;;;;;;;4991220;28;20455;-81
2021/07/24 13:04:51;;;;;;;6.50;3.63;;;;;;;;;;4990725;28;20026;-81
2021/07/24 13:07:25;;;;;;;9.93;3.60;;;;;;;;;;5074644;28;20608;-79
2021/07/24 13:09:52;;;;;;;5.60;3.58;;;;;;;;;;5078672;28;20023;-81
2021/07/24 13:12:18;;;;;;;7.70;3.83;;;;;;;;;;5079031;28;20053;-79
2021/07/24 13:14:44;;;;;;;7.63;3.80;;;;;;;;;;5078758;28;20061;-79
2021/07/24 13:17:11;;;;;;;5.93;3.22;;;;;;;;;;4993763;28;20026;-81
2021/07/24 13:19:37;;;;;;;8.23;3.42;;;;;;;;;;4994132;28;20060;-80
2021/07/24 13:22:04;;;;;;;7.03;3.83;;;;;;;;;;5078405;28;20475;-79
2021/07/24 13:24:32;;;;;;;12.38;3.70;;;;;;;;;;4994057;28;20057;-78
2021/07/24 13:29:44;;;;;;;5.03;3.10;;;;;;;;;;4993805;28;20033;-79
2021/07/24 13:32:12;;;;;;;6.53;3.42;;;;;;;;;;4994042;28;20050;-79
2021/07/24 13:34:39;;;;;;;6.45;3.30;;;;;;;;;;4993489;28;20029;-80
2021/07/24 13:37:05;;;;;;;7.35;3.90;;;;;;;;;;4993289;28;20059;-80
2021/07/24 13:39:32;;;;;;;5.47;3.20;;;;;;;;;;4993882;28;20043;-80
2021/07/24 13:41:58;;;;;;;6.68;3.47;;;;;;;;;;5078338;28;20022;-81
2021/07/24 13:44:25;;;;;;;5.82;3.35;;;;;;;;;;4993316;28;20022;-79
2021/07/24 13:46:52;;;;;;;5.82;3.35;;;;;;;;;;5077784;28;20034;-80
2021/07/24 13:49:18;;;;;;;9.10;3.55;;;;;;;;;;4993233;28;20035;-80
2021/07/24 13:51:45;;;;;;;9.82;3.30;;;;;;;;;;4993190;28;20386;-79
2021/07/24 13:54:11;;;;;;;7.95;3.35;;;;;;;;;;4994229;28;20027;-81
2021/07/24 13:56:38;;;;;;;5.18;3.33;;;;;;;;;;5077681;28;20113;-79
2021/07/24 13:59:04;;;;;;;7.75;3.20;;;;;;;;;;4993024;28;20041;-79
2021/07/24 14:01:31;;;;;;;5.72;3.10;;;;;;;;;;4993619;28;20054;-81
2021/07/24 14:03:58;;;;;;;6.45;3.55;;;;;;;;;;4993567;28;20049;-79
2021/07/24 14:06:24;;;;;;;7.75;2.95;;;;;;;;;;5077504;28;20561;-79
2021/07/24 14:08:54;;;;;;;5.40;3.28;;;;;;;;;;4992915;28;20034;-79
2021/07/24 14:11:23;;;;;;;6.43;3.28;;;;;;;;;;4993517;28;20083;-81
2021/07/24 14:13:49;;;;;;;4.15;2.45;;;;;;;;;;5077120;28;20088;-79
2021/07/24 14:16:17;;;;;;;4.95;2.58;;;;;;;;;;5077535;28;20080;-79
2021/07/24 14:18:44;;;;;;;4.82;2.90;;;;;;;;;;4992923;28;20042;-79
2021/07/24 14:21:11;;;;;;;11.27;3.28;;;;;;;;;;4992097;28;20472;-80
2021/07/24 14:23:38;;;;;;;6.05;3.35;;;;;;;;;;4993043;28;20356;-80
2021/07/24 14:26:05;;;;;;;8.30;3.17;;;;;;;;;;5078228;28;20415;-79
2021/07/24 14:28:31;;;;;;;19.20;3.50;;;;;;;;;;4992726;28;20030;-80
2021/07/24 14:30:58;;;;;;;5.57;3.20;;;;;;;;;;5076913;28;20159;-80
2021/07/24 14:33:25;;;;;;;5.85;3.15;;;;;;;;;;4992709;28;20034;-80
2021/07/24 14:35:51;;;;;;;7.32;3.30;;;;;;;;;;5073372;28;20054;-81
2021/07/24 14:38:18;;;;;;;6.80;3.17;;;;;;;;;;4973235;28;20027;-80
2021/07/24 14:40:44;;;;;;;7.15;3.25;;;;;;;;;;5073709;28;20031;-80
2021/07/24 14:43:11;;;;;;;7.07;3.08;;;;;;;;;;4973137;28;20045;-81
2021/07/24 14:45:40;;;;;;;7.45;2.85;;;;;;;;;;5073707;28;20031;-80
2021/07/24 14:48:07;;;;;;;4.35;2.92;;;;;;;;;;5073175;28;20491;-80